Time;durP1;ratioP1;P1;durP2;ratioP2;P2;SDS_P1;SDS_P2;PMS_P1;PMS_P2;Temp;Humidity;BMP_temperature;BMP_pressure;BME280_temperature;BME280_humidity;BME280_pressure;Samples;Min_cycle;Max_cycle;Signal;HPM_P1;HPM_P2
2023/03/06 00:02:21;;;;;;;7.85;5.88;;;;;;;3.07;100.00;100714.94;5009167;28;20136;-70
2023/03/06 00:04:46;;;;;;;8.50;5.55;;;;;;;3.11;100.00;100719.75;5032456;28;20067;-70
2023/03/06 00:07:11;;;;;;;9.95;5.60;;;;;;;3.12;100.00;100708.03;5031135;28;20427;-70
2023/03/06 00:09:37;;;;;;;7.20;5.60;;;;;;;3.12;100.00;100712.56;5012084;28;20033;-71
2023/03/06 00:12:02;;;;;;;9.20;5.95;;;;;;;3.12;100.00;100707.22;5011351;28;20038;-70
2023/03/06 00:14:27;;;;;;;9.82;5.88;;;;;;;3.14;100.00;100707.84;5010822;28;20021;-70
2023/03/06 00:16:54;;;;;;;8.45;5.95;;;;;;;3.13;100.00;100706.22;5003702;28;20033;-70
2023/03/06 00:19:20;;;;;;;9.77;5.80;;;;;;;3.12;100.00;100702.69;5032224;28;20493;-70
2023/03/06 00:21:46;;;;;;;7.90;5.70;;;;;;;3.11;100.00;100702.88;5032518;28;20458;-70
2023/03/06 00:24:11;;;;;;;8.70;6.10;;;;;;;3.14;100.00;100699.81;5010567;28;20036;-70
2023/03/06 00:26:40;;;;;;;7.68;6.20;;;;;;;3.10;100.00;100687.84;4994826;28;20056;-70
2023/03/06 00:29:08;;;;;;;9.30;6.63;;;;;;;3.07;100.00;100697.06;5012351;28;20385;-70
2023/03/06 00:31:34;;;;;;;8.50;6.20;;;;;;;2.99;100.00;100692.59;5018236;28;20140;-70
2023/03/06 00:34:00;;;;;;;7.93;6.30;;;;;;;2.94;100.00;100686.94;5030795;28;20064;-70
2023/03/06 00:36:25;;;;;;;8.23;6.55;;;;;;;2.89;100.00;100684.00;5014488;28;20060;-70
2023/03/06 00:38:51;;;;;;;9.00;6.95;;;;;;;2.94;100.00;100686.94;5020667;28;20030;-70
2023/03/06 00:41:16;;;;;;;10.30;6.55;;;;;;;2.96;100.00;100679.59;5012089;28;20022;-70
2023/03/06 00:43:41;;;;;;;9.50;6.70;;;;;;;2.93;100.00;100673.75;4994884;28;20026;-70
2023/03/06 00:46:07;;;;;;;8.10;6.85;;;;;;;2.95;100.00;100672.59;5013770;28;20068;-71
2023/03/06 00:48:33;;;;;;;13.70;7.28;;;;;;;2.94;100.00;100672.75;5031982;28;20048;-71
2023/03/06 00:50:58;;;;;;;10.13;7.28;;;;;;;2.95;100.00;100672.59;5031862;28;20029;-70
2023/03/06 00:53:24;;;;;;;9.45;7.22;;;;;;;2.91;100.00;100676.63;5030200;28;20102;-70
2023/03/06 00:55:50;;;;;;;7.85;6.97;;;;;;;2.82;100.00;100661.66;5032161;28;20033;-70
2023/03/06 00:58:16;;;;;;;11.30;7.68;;;;;;;2.85;100.00;100666.66;5031583;28;20384;-70
2023/03/06 01:00:43;;;;;;;10.90;7.30;;;;;;;2.80;100.00;100664.50;5028406;28;20076;-70
2023/03/06 01:03:09;;;;;;;9.20;7.55;;;;;;;2.83;100.00;100661.47;5011865;28;20517;-70
2023/03/06 01:05:36;;;;;;;10.30;7.43;;;;;;;2.81;100.00;100657.34;5031421;28;20109;-70
2023/03/06 01:08:03;;;;;;;11.38;7.88;;;;;;;2.80;100.00;100653.00;5012525;28;20037;-69
2023/03/06 01:10:28;;;;;;;9.73;8.00;;;;;;;2.78;100.00;100650.50;5014224;28;20395;-70
2023/03/06 01:12:54;;;;;;;11.07;7.97;;;;;;;2.76;100.00;100646.34;5014178;28;20025;-70
2023/03/06 01:15:20;;;;;;;8.10;7.30;;;;;;;2.75;100.00;100644.66;5031720;28;20037;-70
2023/03/06 01:17:46;;;;;;;9.48;7.75;;;;;;;2.72;100.00;100650.38;5031912;28;20525;-70
2023/03/06 01:20:14;;;;;;;10.77;8.18;;;;;;;2.63;100.00;100654.97;5030940;28;20120;-70
2023/03/06 01:22:39;;;;;;;12.82;8.10;;;;;;;2.59;100.00;100643.78;5010670;28;20056;-70
2023/03/06 01:25:05;;;;;;;14.27;8.38;;;;;;;2.51;100.00;100653.69;5032440;28;20532;-70
2023/03/06 01:27:33;;;;;;;12.07;8.30;;;;;;;2.48;100.00;100649.56;5035720;28;20115;-70
2023/03/06 01:29:59;;;;;;;11.10;8.40;;;;;;;2.48;100.00;100638.88;5011688;28;20036;-70
2023/03/06 01:32:24;;;;;;;11.13;8.23;;;;;;;2.45;100.00;100640.03;5034304;28;20034;-70
2023/03/06 01:34:49;;;;;;;9.80;8.40;;;;;;;2.45;100.00;100636.56;5035490;28;20036;-70
2023/03/06 01:37:15;;;;;;;11.35;8.70;;;;;;;2.40;100.00;100630.88;5035147;28;20029;-70
2023/03/06 01:39:40;;;;;;;11.38;8.65;;;;;;;2.39;100.00;100642.59;5034078;28;20034;-70
2023/03/06 01:42:06;;;;;;;13.05;9.43;;;;;;;2.39;100.00;100639.94;5014703;28;20098;-70
2023/03/06 01:44:31;;;;;;;12.88;8.50;;;;;;;2.40;100.00;100652.25;5034888;28;20028;-70
2023/03/06 01:46:56;;;;;;;12.65;8.90;;;;;;;2.37;100.00;100631.25;5017188;28;20504;-70
2023/03/06 01:49:26;;;;;;;12.57;8.57;;;;;;;2.32;100.00;100628.28;5034999;28;20033;-70
2023/03/06 01:51:56;;;;;;;13.15;8.63;;;;;;;2.30;100.00;100631.13;5033952;28;20528;-70
2023/03/06 01:54:29;;;;;;;10.20;8.50;;;;;;;2.27;100.00;100621.63;5035072;28;20531;-70
2023/03/06 01:57:04;;;;;;;10.23;8.88;;;;;;;2.26;100.00;100625.28;5004992;28;20034;-70
2023/03/06 01:59:34;;;;;;;10.93;8.93;;;;;;;2.23;100.00;100625.66;4997344;28;20402;-70
2023/03/06 02:02:01;;;;;;;12.93;9.00;;;;;;;2.23;100.00;100622.97;4996091;28;20077;-70
2023/03/06 02:04:27;;;;;;;10.70;8.68;;;;;;;2.19;100.00;100623.50;4998783;28;20029;-70
2023/03/06 02:06:54;;;;;;;10.82;9.10;;;;;;;2.17;100.00;100618.34;5034240;28;20041;-70
2023/03/06 02:09:19;;;;;;;12.80;8.65;;;;;;;2.14;100.00;100618.69;5034157;28;20477;-70
2023/03/06 02:11:45;;;;;;;11.48;8.85;;;;;;;2.18;100.00;100612.00;5034452;28;20032;-70
2023/03/06 02:14:14;;;;;;;11.40;9.00;;;;;;;2.15;100.00;100607.00;5016731;28;20030;-70
2023/03/06 02:16:41;;;;;;;10.88;8.52;;;;;;;2.12;100.00;100610.84;5014687;28;20038;-70
2023/03/06 02:19:17;;;;;;;12.02;8.60;;;;;;;2.10;100.00;100604.06;4996892;28;20117;-70
2023/03/06 02:21:42;;;;;;;12.05;9.85;;;;;;;2.07;100.00;100612.41;5018493;28;20033;-70
2023/03/06 02:24:26;;;;;;;12.05;8.90;;;;;;;1.99;100.00;100599.09;5029915;28;20029;-70
2023/03/06 02:26:52;;;;;;;10.15;8.38;;;;;;;1.94;100.00;100596.94;5034560;28;20392;-70
2023/03/06 02:29:24;;;;;;;11.25;8.77;;;;;;;1.83;100.00;100590.16;5034153;28;20376;-70
2023/03/06 02:31:49;;;;;;;10.65;8.73;;;;;;;1.81;100.00;100584.16;5031657;28;20048;-70
2023/03/06 02:34:15;;;;;;;10.73;8.10;;;;;;;1.85;100.00;100590.00;5034206;28;20108;-70
2023/03/06 02:36:54;;;;;;;10.10;8.45;;;;;;;1.76;100.00;100591.88;5031976;28;20036;-70
2023/03/06 02:39:24;;;;;;;9.65;8.65;;;;;;;1.74;100.00;100577.88;5033100;28;20030;-70
2023/03/06 02:41:49;;;;;;;11.10;9.10;;;;;;;1.67;100.00;100560.91;5014444;28;20140;-70
2023/03/06 02:44:15;;;;;;;10.55;8.75;;;;;;;1.74;100.00;100575.22;5012835;28;20750;-70
2023/03/06 02:46:40;;;;;;;12.23;9.20;;;;;;;1.70;100.00;100573.88;4996724;28;20032;-70
2023/03/06 02:49:05;;;;;;;11.30;8.98;;;;;;;1.67;100.00;100571.56;5013734;28;20528;-70
2023/03/06 02:51:30;;;;;;;10.75;8.77;;;;;;;1.63;100.00;100563.09;5018032;28;20037;-70
2023/03/06 02:53:56;;;;;;;11.13;8.82;;;;;;;1.56;100.00;100562.94;5015076;28;20040;-70
2023/03/06 02:56:21;;;;;;;10.38;9.02;;;;;;;1.52;100.00;100568.78;5032678;28;20061;-70
2023/03/06 02:58:47;;;;;;;12.00;9.25;;;;;;;1.49;100.00;100561.97;5032764;28;20040;-70
2023/03/06 03:01:12;;;;;;;11.48;9.38;;;;;;;1.44;100.00;100564.31;5030036;28;20112;-70
2023/03/06 03:03:38;;;;;;;11.05;8.82;;;;;;;1.48;100.00;100568.31;5033588;28;20033;-70
2023/03/06 03:06:05;;;;;;;12.27;9.35;;;;;;;1.45;100.00;100560.66;5015720;28;20060;-70
2023/03/06 03:08:31;;;;;;;11.70;9.85;;;;;;;1.43;100.00;100546.66;5033438;28;20033;-70
2023/03/06 03:10:56;;;;;;;13.32;9.70;;;;;;;1.49;100.00;100548.63;5019681;28;20034;-70
2023/03/06 03:13:22;;;;;;;12.32;9.90;;;;;;;1.55;100.00;100552.44;4996000;28;20065;-70
2023/03/06 03:16:06;;;;;;;12.13;10.05;;;;;;;1.58;100.00;100552.91;5013784;28;20030;-70
2023/03/06 03:18:32;;;;;;;16.58;10.70;;;;;;;1.55;100.00;100547.13;4996169;28;20026;-70
2023/03/06 03:20:57;;;;;;;12.77;10.13;;;;;;;1.52;100.00;100547.47;5013484;28;20479;-70
2023/03/06 03:23:23;;;;;;;13.27;10.23;;;;;;;1.52;100.00;100545.63;5013497;28;20133;-70
2023/03/06 03:25:49;;;;;;;13.65;10.68;;;;;;;1.49;100.00;100545.13;5011042;28;20486;-70
2023/03/06 03:28:14;;;;;;;14.85;11.35;;;;;;;1.42;100.00;100542.34;5023608;28;20041;-70
2023/03/06 03:30:44;;;;;;;14.07;10.90;;;;;;;1.45;100.00;100547.34;5014941;28;20025;-70
2023/03/06 03:33:09;;;;;;;15.30;11.23;;;;;;;1.42;100.00;100537.00;5013433;28;20040;-70
2023/03/06 03:35:35;;;;;;;14.90;11.45;;;;;;;1.42;100.00;100534.34;5026869;28;20029;-70
2023/03/06 03:38:00;;;;;;;15.68;11.80;;;;;;;1.46;100.00;100527.63;5033107;28;20045;-70
2023/03/06 03:40:26;;;;;;;13.55;11.73;;;;;;;1.45;100.00;100526.00;4996484;28;20041;-70
2023/03/06 03:42:51;;;;;;;15.98;12.20;;;;;;;1.49;100.00;100526.47;5013324;28;20030;-70
2023/03/06 03:45:16;;;;;;;16.08;12.38;;;;;;;1.53;100.00;100528.63;5012941;28;20064;-70
2023/03/06 03:47:42;;;;;;;16.52;12.70;;;;;;;1.51;100.00;100516.44;5011900;28;20032;-70
2023/03/06 03:50:08;;;;;;;18.52;12.77;;;;;;;1.50;100.00;100518.31;5012652;28;20026;-70
2023/03/06 03:52:33;;;;;;;15.82;13.30;;;;;;;1.50;100.00;100507.63;5013298;28;20025;-70
2023/03/06 03:54:59;;;;;;;17.60;12.80;;;;;;;1.53;100.00;100520.63;5026649;28;20475;-70
2023/03/06 03:57:24;;;;;;;17.17;13.02;;;;;;;1.55;100.00;100518.59;5032326;28;20037;-70
2023/03/06 03:59:49;;;;;;;18.27;13.68;;;;;;;1.51;100.00;100513.78;5014995;28;20119;-70
2023/03/06 04:02:15;;;;;;;18.98;14.68;;;;;;;1.48;100.00;100498.13;5027752;28;20069;-70
2023/03/06 04:04:41;;;;;;;19.73;14.52;;;;;;;1.46;100.00;100505.50;5014644;28;20063;-70
2023/03/06 04:07:06;;;;;;;20.73;15.40;;;;;;;1.44;100.00;100492.34;4997265;28;20065;-70
2023/03/06 04:09:32;;;;;;;21.38;16.05;;;;;;;1.44;100.00;100500.34;5031007;28;20033;-70
2023/03/06 04:11:57;;;;;;;20.98;16.30;;;;;;;1.40;100.00;100496.34;5022908;28;20041;-70
2023/03/06 04:14:22;;;;;;;21.83;16.10;;;;;;;1.41;100.00;100492.69;5032172;28;20034;-70
2023/03/06 04:16:48;;;;;;;19.95;16.88;;;;;;;1.43;100.00;100496.00;5014913;28;20040;-70
2023/03/06 04:19:13;;;;;;;21.20;16.30;;;;;;;1.43;100.00;100490.66;5032687;28;20037;-70
2023/03/06 04:21:38;;;;;;;22.30;17.02;;;;;;;1.41;100.00;100493.50;5032457;28;20488;-70
2023/03/06 04:24:04;;;;;;;22.58;18.17;;;;;;;1.38;100.00;100498.34;5032391;28;20034;-70
2023/03/06 04:26:29;;;;;;;23.38;17.67;;;;;;;1.40;100.00;100491.84;5011868;28;22286;-70
2023/03/06 04:28:55;;;;;;;23.90;17.65;;;;;;;1.39;100.00;100489.38;5032762;28;20064;-70
2023/03/06 04:31:20;;;;;;;23.92;19.10;;;;;;;1.42;100.00;100491.69;5029749;28;20550;-70
2023/03/06 04:33:45;;;;;;;23.67;17.75;;;;;;;1.42;100.00;100483.69;5032404;28;20030;-70
2023/03/06 04:36:23;;;;;;;24.00;18.55;;;;;;;1.47;100.00;100480.50;5031891;28;20033;-70
2023/03/06 04:38:49;;;;;;;24.10;18.70;;;;;;;1.41;100.00;100479.34;5032151;28;20029;-70
2023/03/06 04:41:14;;;;;;;24.60;19.83;;;;;;;1.39;100.00;100482.19;5031770;28;20404;-70
2023/03/06 04:43:39;;;;;;;26.60;20.13;;;;;;;1.39;100.00;100478.69;5027745;28;20041;-70
2023/03/06 04:46:04;;;;;;;27.35;20.15;;;;;;;1.38;100.00;100477.03;5016812;28;20060;-70
2023/03/06 04:48:30;;;;;;;26.85;21.02;;;;;;;1.34;100.00;100471.19;5031642;28;20370;-70
2023/03/06 04:50:55;;;;;;;29.40;22.63;;;;;;;1.31;100.00;100468.06;5030082;28;20053;-70
2023/03/06 04:53:20;;;;;;;29.10;21.92;;;;;;;1.33;100.00;100466.91;5024422;28;20061;-70
2023/03/06 04:55:46;;;;;;;27.75;20.90;;;;;;;1.34;100.00;100457.88;5011119;28;20030;-70
2023/03/06 04:58:12;;;;;;;30.17;22.95;;;;;;;1.35;100.00;100466.72;5012012;28;20030;-70
2023/03/06 05:00:38;;;;;;;28.88;22.55;;;;;;;1.36;100.00;100457.69;5010113;28;20491;-70
2023/03/06 05:03:03;;;;;;;31.88;23.80;;;;;;;1.38;100.00;100466.38;5016504;28;20148;-70
2023/03/06 05:05:29;;;;;;;30.77;22.70;;;;;;;1.38;100.00;100469.84;5014581;28;20030;-70
2023/03/06 05:07:54;;;;;;;32.15;23.70;;;;;;;1.37;100.00;100470.84;5016043;28;20030;-70
2023/03/06 05:10:20;;;;;;;30.38;24.13;;;;;;;1.30;100.00;100467.25;5015574;28;20029;-70
2023/03/06 05:12:45;;;;;;;31.02;23.67;;;;;;;1.29;100.00;100467.41;5035601;28;20036;-70
2023/03/06 05:15:12;;;;;;;30.45;24.70;;;;;;;1.23;100.00;100466.25;5017617;28;20044;-70
2023/03/06 05:17:38;;;;;;;32.70;24.50;;;;;;;1.22;100.00;100460.13;5035791;28;20057;-70
2023/03/06 05:20:06;;;;;;;31.23;23.88;;;;;;;1.23;100.00;100452.94;5016794;28;20115;-70
2023/03/06 05:22:33;;;;;;;32.60;24.52;;;;;;;1.21;100.00;100449.63;4999408;28;20502;-70
2023/03/06 05:24:59;;;;;;;31.23;24.30;;;;;;;1.18;100.00;100449.97;4996359;28;20030;-70
2023/03/06 05:27:24;;;;;;;31.90;24.90;;;;;;;1.17;100.00;100449.13;4996157;28;20137;-70
2023/03/06 05:29:49;;;;;;;36.50;26.08;;;;;;;1.19;100.00;100441.81;4995744;28;20422;-70
2023/03/06 05:32:15;;;;;;;33.95;24.83;;;;;;;1.26;100.00;100441.94;5033118;28;20036;-70
2023/03/06 05:34:41;;;;;;;33.15;24.73;;;;;;;1.28;100.00;100441.75;5035509;28;20025;-70
2023/03/06 05:37:06;;;;;;;32.70;24.85;;;;;;;1.33;100.00;100442.91;5035464;28;20033;-70
2023/03/06 05:39:32;;;;;;;34.35;25.52;;;;;;;1.32;100.00;100435.06;5035203;28;20373;-70
2023/03/06 05:41:57;;;;;;;33.63;25.38;;;;;;;1.29;100.00;100438.09;5035398;28;20458;-70
2023/03/06 05:44:22;;;;;;;34.05;25.48;;;;;;;1.31;100.00;100438.75;5034990;28;20032;-70
2023/03/06 05:46:49;;;;;;;32.67;25.05;;;;;;;1.30;100.00;100442.41;5031044;28;20480;-70
2023/03/06 05:49:14;;;;;;;32.45;25.55;;;;;;;1.28;100.00;100439.09;5034314;28;20033;-70
2023/03/06 05:51:39;;;;;;;33.65;25.48;;;;;;;1.29;100.00;100438.09;5035490;28;20112;-70
2023/03/06 05:54:05;;;;;;;35.13;25.42;;;;;;;1.30;100.00;100431.72;5035455;28;20033;-70
2023/03/06 05:56:30;;;;;;;34.30;26.23;;;;;;;1.31;100.00;100436.06;5035144;28;20112;-70
2023/03/06 05:58:55;;;;;;;38.33;24.75;;;;;;;1.33;100.00;100429.56;5034716;28;20072;-70
2023/03/06 06:01:24;;;;;;;33.78;25.92;;;;;;;1.34;100.00;100428.53;5026816;28;20030;-70
2023/03/06 06:03:52;;;;;;;34.28;26.33;;;;;;;1.31;100.00;100433.41;5035251;28;20033;-70
2023/03/06 06:06:17;;;;;;;35.17;26.27;;;;;;;1.33;100.00;100436.72;5034730;28;20025;-70
2023/03/06 06:08:43;;;;;;;37.67;26.77;;;;;;;1.33;100.00;100437.56;5034870;28;20091;-70
2023/03/06 06:11:11;;;;;;;37.25;26.33;;;;;;;1.32;100.00;100438.56;5033895;28;20380;-70
2023/03/06 06:13:39;;;;;;;34.10;26.63;;;;;;;1.36;100.00;100441.69;5016237;28;20468;-70
2023/03/06 06:16:14;;;;;;;34.03;26.60;;;;;;;1.35;100.00;100434.72;5030101;28;20030;-70
2023/03/06 06:18:40;;;;;;;36.33;26.73;;;;;;;1.37;100.00;100432.69;4997364;28;20038;-70
2023/03/06 06:21:07;;;;;;;35.83;26.95;;;;;;;1.34;100.00;100433.06;5021071;28;20443;-70
2023/03/06 06:23:32;;;;;;;36.88;27.67;;;;;;;1.33;100.00;100434.03;5034198;28;20365;-70
2023/03/06 06:25:59;;;;;;;37.42;28.38;;;;;;;1.34;100.00;100433.06;5034139;28;20523;-70
2023/03/06 06:28:26;;;;;;;35.13;26.65;;;;;;;1.35;100.00;100430.22;5034170;28;20026;-70
2023/03/06 06:30:52;;;;;;;38.47;26.92;;;;;;;1.33;100.00;100428.72;5029822;28;20037;-70
2023/03/06 06:33:17;;;;;;;37.08;27.40;;;;;;;1.32;100.00;100430.56;5013153;28;20022;-70
2023/03/06 06:35:42;;;;;;;34.50;26.83;;;;;;;1.34;100.00;100428.53;5014637;28;20372;-70
2023/03/06 06:38:08;;;;;;;36.38;27.38;;;;;;;1.35;100.00;100429.41;5017242;28;20041;-70
2023/03/06 06:40:33;;;;;;;40.22;27.83;;;;;;;1.35;100.00;100430.22;5015994;28;20025;-70
2023/03/06 06:42:59;;;;;;;35.25;27.40;;;;;;;1.36;100.00;100431.88;5034237;28;20161;-70
2023/03/06 06:45:24;;;;;;;38.47;27.98;;;;;;;1.33;100.00;100426.91;5016047;28;20060;-70
2023/03/06 06:47:50;;;;;;;37.83;28.17;;;;;;;1.34;100.00;100430.38;5034209;28;20034;-70
2023/03/06 06:50:15;;;;;;;39.22;28.42;;;;;;;1.39;100.00;100430.72;5014510;28;20029;-70
2023/03/06 06:52:41;;;;;;;40.20;29.95;;;;;;;1.39;100.00;100425.38;5013121;28;20040;-70
2023/03/06 06:55:07;;;;;;;35.97;27.88;;;;;;;1.43;100.00;100432.00;4996397;28;20057;-70
2023/03/06 06:57:35;;;;;;;40.28;29.60;;;;;;;1.42;100.00;100430.38;4998650;28;20029;-70
2023/03/06 07:00:01;;;;;;;39.65;29.38;;;;;;;1.49;100.00;100428.63;5012900;28;20124;-70
2023/03/06 07:02:26;;;;;;;40.15;29.73;;;;;;;1.52;100.00;100430.94;5022835;28;20129;-70
2023/03/06 07:04:52;;;;;;;41.22;29.83;;;;;;;1.53;100.00;100435.28;5033841;28;20076;-70
2023/03/06 07:07:17;;;;;;;37.85;29.10;;;;;;;1.55;100.00;100432.44;5015227;28;20069;-70
2023/03/06 07:09:42;;;;;;;40.65;29.55;;;;;;;1.59;100.00;100444.41;5012409;28;20465;-70
2023/03/06 07:12:08;;;;;;;39.83;30.17;;;;;;;1.61;100.00;100439.72;5021930;28;20033;-70
2023/03/06 07:14:36;;;;;;;40.70;31.30;;;;;;;1.67;100.00;100444.34;5032664;28;20465;-70
2023/03/06 07:17:01;;;;;;;41.85;29.80;;;;;;;1.67;100.00;100443.53;5015853;28;20033;-70
2023/03/06 07:19:26;;;;;;;42.30;30.52;;;;;;;1.68;100.00;100445.22;5033198;28;20036;-70
2023/03/06 07:21:52;;;;;;;46.40;31.67;;;;;;;1.67;100.00;100440.88;5033219;28;20048;-70
2023/03/06 07:24:17;;;;;;;44.70;32.10;;;;;;;1.67;100.00;100443.53;5028870;28;20026;-70
2023/03/06 07:26:47;;;;;;;44.65;32.55;;;;;;;1.70;100.00;100443.19;5033325;28;20421;-70
2023/03/06 07:29:12;;;;;;;47.38;33.40;;;;;;;1.74;100.00;100449.84;5032000;28;20025;-70
2023/03/06 07:31:38;;;;;;;45.35;33.38;;;;;;;1.75;100.00;100446.13;5031915;28;20431;-70
2023/03/06 07:34:03;;;;;;;46.42;32.83;;;;;;;1.78;100.00;100440.44;5032027;28;20035;-70
2023/03/06 07:36:29;;;;;;;47.85;32.90;;;;;;;1.79;100.00;100431.44;5032748;28;20037;-70
2023/03/06 07:38:54;;;;;;;44.35;33.28;;;;;;;1.83;100.00;100434.56;5013493;28;20548;-70
2023/03/06 07:41:22;;;;;;;45.00;32.88;;;;;;;1.85;100.00;100430.72;5013117;28;20042;-70
2023/03/06 07:43:48;;;;;;;45.85;33.65;;;;;;;1.88;100.00;100441.03;5025618;28;20051;-70
2023/03/06 07:46:14;;;;;;;48.08;33.53;;;;;;;1.89;100.00;100436.56;5032979;28;20029;-70
2023/03/06 07:48:40;;;;;;;50.55;35.95;;;;;;;1.89;100.00;100439.22;5031173;28;20079;-70
2023/03/06 07:51:32;;;;;;;46.30;33.38;;;;;;;2.00;100.00;100437.97;5015190;28;20033;-70
2023/03/06 07:53:57;;;;;;;46.78;33.47;;;;;;;2.02;100.00;100441.28;5028356;28;20046;-70
2023/03/06 07:56:22;;;;;;;46.80;33.05;;;;;;;2.06;100.00;100442.59;5013752;28;20147;-70
2023/03/06 07:58:48;;;;;;;46.85;34.28;;;;;;;2.06;100.00;100435.41;5032787;28;20057;-70
2023/03/06 08:01:18;;;;;;;46.40;34.00;;;;;;;2.05;100.00;100444.41;5029620;28;20128;-70
2023/03/06 08:03:43;;;;;;;46.80;33.33;;;;;;;2.07;100.00;100441.59;5030833;28;20025;-70
2023/03/06 08:06:15;;;;;;;46.28;34.58;;;;;;;2.08;100.00;100444.09;5028387;28;20492;-70
2023/03/06 08:08:41;;;;;;;;;;;;;;;2.22;100.00;100444.28;5028428;28;20034;-70
2023/03/06 08:11:08;;;;;;;44.50;33.15;;;;;;;2.14;100.00;100450.53;5000985;28;19917;-70
2023/03/06 08:13:34;;;;;;;49.00;32.90;;;;;;;2.18;100.00;100446.50;5032567;28;20092;-70
2023/03/06 08:16:00;;;;;;;45.63;33.40;;;;;;;2.21;100.00;100447.97;5032312;28;20041;-70
2023/03/06 08:18:26;;;;;;;42.47;31.10;;;;;;;2.27;100.00;100442.72;5014647;28;20036;-70
2023/03/06 08:21:06;;;;;;;41.63;30.80;;;;;;;2.30;100.00;100455.72;5031578;28;20384;-70
2023/03/06 08:23:33;;;;;;;46.03;31.77;;;;;;;2.33;100.00;100451.88;5032047;28;20032;-70
2023/03/06 08:26:04;;;;;;;42.28;29.30;;;;;;;2.34;100.00;100452.69;5005172;28;20137;-76
2023/03/06 08:28:29;;;;;;;42.65;28.65;;;;;;;2.34;100.00;100444.69;4995132;28;20026;-72
2023/03/06 08:30:55;;;;;;;40.30;31.00;;;;;;;2.33;100.00;100443.03;5012629;28;20111;-71
2023/03/06 08:33:21;;;;;;;40.30;30.38;;;;;;;2.40;100.00;100447.47;5013047;28;20034;-72
2023/03/06 08:35:47;;;;;;;38.83;29.10;;;;;;;2.48;100.00;100443.91;5011481;28;20026;-73
2023/03/06 08:38:12;;;;;;;41.47;30.73;;;;;;;2.52;100.00;100441.69;5012419;28;20037;-73
2023/03/06 08:40:38;;;;;;;40.45;29.25;;;;;;;2.56;100.00;100438.44;5006313;28;20034;-72
2023/03/06 08:43:03;;;;;;;38.90;29.58;;;;;;;2.60;100.00;100447.78;5012670;28;20033;-73
2023/03/06 08:45:29;;;;;;;39.60;29.05;;;;;;;2.69;100.00;100447.69;4994685;28;20080;-71
2023/03/06 08:47:54;;;;;;;37.40;28.95;;;;;;;2.76;100.00;100444.13;5012241;28;20030;-72
2023/03/06 08:50:20;;;;;;;33.05;26.02;;;;;;;2.81;100.00;100448.91;5028597;28;20037;-73
2023/03/06 08:52:45;;;;;;;37.05;27.40;;;;;;;2.74;100.00;100445.31;5030718;28;20029;-75
2023/03/06 08:55:13;;;;;;;36.17;28.50;;;;;;;2.79;100.00;100453.59;5029948;28;20057;-75
2023/03/06 08:57:39;;;;;;;35.33;25.77;;;;;;;2.83;100.00;100450.34;5012336;28;20047;-73
2023/03/06 09:00:10;;;;;;;33.33;24.83;;;;;;;2.82;100.00;100448.72;4995169;28;20111;-74
2023/03/06 09:02:35;;;;;;;34.17;25.13;;;;;;;2.89;100.00;100447.97;5012333;28;20136;-74
2023/03/06 09:05:04;;;;;;;34.70;26.27;;;;;;;2.96;100.00;100447.06;5007764;28;20128;-74
2023/03/06 09:07:32;;;;;;;36.17;27.00;;;;;;;3.03;100.00;100452.47;5006620;28;20034;-72
2023/03/06 09:09:57;;;;;;;35.75;26.20;;;;;;;3.08;100.00;100444.75;5012201;28;20045;-71
2023/03/06 09:12:23;;;;;;;35.53;26.67;;;;;;;3.15;100.00;100445.63;5023418;28;20033;-73
2023/03/06 09:14:49;;;;;;;34.80;26.08;;;;;;;3.25;100.00;100445.38;5011393;28;20383;-74
2023/03/06 09:17:16;;;;;;;32.97;25.23;;;;;;;3.30;100.00;100450.97;4994565;28;20033;-75
2023/03/06 09:19:41;;;;;;;32.78;25.27;;;;;;;3.28;100.00;100445.00;5004992;28;20036;-73
2023/03/06 09:22:09;;;;;;;31.23;23.55;;;;;;;3.27;100.00;100451.34;5018559;28;20026;-74
2023/03/06 09:24:35;;;;;;;36.42;25.88;;;;;;;3.25;100.00;100450.72;5010621;28;20030;-73
2023/03/06 09:27:01;;;;;;;34.20;26.00;;;;;;;3.36;100.00;100458.25;5024477;28;20133;-73
2023/03/06 09:29:41;;;;;;;32.55;24.75;;;;;;;3.43;100.00;100453.00;5021259;28;20033;-79
2023/03/06 09:32:07;;;;;;;33.55;23.85;;;;;;;3.40;100.00;100452.50;4994575;28;20026;-73
2023/03/06 09:34:32;;;;;;;31.73;24.55;;;;;;;3.45;100.00;100453.63;4994287;28;20087;-75
2023/03/06 09:36:57;;;;;;;30.33;23.15;;;;;;;3.50;100.00;100458.41;5028572;28;20022;-74
2023/03/06 09:39:24;;;;;;;29.05;22.88;;;;;;;3.54;100.00;100459.69;5003254;28;20117;-73
2023/03/06 09:41:50;;;;;;;31.00;23.77;;;;;;;3.59;100.00;100457.28;5012705;28;20117;-74
2023/03/06 09:44:20;;;;;;;30.52;23.15;;;;;;;3.66;100.00;100460.84;5031268;28;20521;-74
2023/03/06 09:47:23;;;;;;;32.80;23.55;;;;;;;3.67;100.00;100459.84;5033279;28;20112;-74
2023/03/06 09:49:57;;;;;;;31.70;24.63;;;;;;;3.67;100.00;100461.69;5035225;28;20029;-74
2023/03/06 09:52:35;;;;;;;31.60;23.55;;;;;;;3.74;100.00;100462.56;5034875;28;20029;-73
2023/03/06 09:55:17;;;;;;;27.20;21.75;;;;;;;3.71;100.00;100455.78;5034896;28;20037;-73
2023/03/06 09:57:58;;;;;;;25.63;19.67;;;;;;;3.72;100.00;100457.41;5017139;28;20416;-74
2023/03/06 10:00:32;;;;;;;25.48;20.45;;;;;;;3.79;100.00;100464.69;5034268;28;20546;-74
2023/03/06 10:03:18;;;;;;;22.60;16.63;;;;;;;3.79;100.00;100456.66;5012677;28;20517;-74
2023/03/06 10:05:51;;;;;;;23.60;17.90;;;;;;;3.80;100.00;100456.47;5014765;28;20433;-73
2023/03/06 10:08:29;;;;;;;23.98;18.85;;;;;;;3.86;100.00;100454.88;5013847;28;20034;-73
2023/03/06 10:11:06;;;;;;;24.58;19.90;;;;;;;3.92;100.00;100448.75;5030316;28;20032;-74
2023/03/06 10:13:38;;;;;;;25.65;19.40;;;;;;;3.94;100.00;100445.91;5014864;28;20164;-74
2023/03/06 10:16:21;;;;;;;26.80;20.52;;;;;;;4.01;100.00;100447.63;5015063;28;20041;-73
2023/03/06 10:18:46;;;;;;;24.33;19.08;;;;;;;3.95;100.00;100444.88;5015131;28;20030;-74
2023/03/06 10:21:42;;;;;;;22.75;18.95;;;;;;;4.03;100.00;100450.09;5014745;28;20052;-73
2023/03/06 10:24:41;;;;;;;27.63;20.10;;;;;;;4.04;100.00;100441.88;4997573;28;20042;-73
2023/03/06 10:27:44;;;;;;;26.38;20.13;;;;;;;4.11;100.00;100446.47;5009681;28;20046;-73
2023/03/06 10:30:18;;;;;;;26.20;19.88;;;;;;;4.16;100.00;100441.38;5029610;28;20370;-74
2023/03/06 10:32:50;;;;;;;23.50;17.98;;;;;;;4.20;100.00;100443.47;5029661;28;20543;-74
2023/03/06 10:35:27;;;;;;;22.92;18.38;;;;;;;4.28;100.00;100439.81;5030009;28;20025;-74
2023/03/06 10:38:01;;;;;;;25.88;19.67;;;;;;;4.30;100.00;100443.13;5013142;28;20109;-73
2023/03/06 10:40:39;;;;;;;23.20;18.10;;;;;;;4.34;100.00;100448.94;5014686;28;20036;-73
2023/03/06 10:43:09;;;;;;;22.48;17.88;;;;;;;4.36;100.00;100439.69;5014368;28;20465;-73
2023/03/06 10:46:11;;;;;;;22.83;18.15;;;;;;;4.51;100.00;100436.06;5014498;28;20037;-74
2023/03/06 10:48:39;;;;;;;22.70;17.35;;;;;;;4.43;100.00;100439.72;4982170;28;20500;-73
2023/03/06 10:51:13;;;;;;;21.58;17.42;;;;;;;4.44;100.00;100439.53;5014270;28;20034;-73
2023/03/06 10:53:53;;;;;;;21.13;16.90;;;;;;;4.44;100.00;100444.91;5013830;28;20473;-73
2023/03/06 10:56:29;;;;;;;19.70;15.77;;;;;;;4.49;100.00;100446.16;5012730;28;20025;-73
2023/03/06 10:59:15;;;;;;;19.50;15.13;;;;;;;4.53;100.00;100444.72;5012965;28;20108;-73
2023/03/06 11:01:43;;;;;;;20.67;15.55;;;;;;;4.60;100.00;100453.66;5003623;28;20358;-73
2023/03/06 11:04:33;;;;;;;20.75;15.13;;;;;;;4.65;100.00;100443.19;5013878;28;20037;-73
2023/03/06 11:07:14;;;;;;;19.15;14.95;;;;;;;4.71;100.00;100449.59;5012622;28;20060;-73
2023/03/06 11:09:46;;;;;;;21.45;15.35;;;;;;;4.67;100.00;100451.03;5013473;28;20046;-73
2023/03/06 11:12:22;;;;;;;25.55;16.20;;;;;;;4.64;100.00;100435.34;5013608;28;20065;-73
2023/03/06 11:15:12;;;;;;;19.95;15.05;;;;;;;4.68;100.00;100437.44;5013391;28;20050;-73
2023/03/06 11:17:53;;;;;;;21.15;15.82;;;;;;;4.79;100.00;100442.25;5012367;28;20417;-73